Briefing drone pour Genlis

Rechercher une autre localisation

Conditions de vol :


Nous sommes le : Lundi 08 mars 2021
Il est 18:26 UTC (19:26 LT)

Lever de soleil : 05:38 UTC (06:38 LT)
Coucher de soleil : 18:01 UTC (19:01 LT)

Météo

L'essentiel des conditions de vol

VIGILANCE MÉTÉO FRANCE - Côte-dOr (21)
Pas de vigilances particulieres
METAR de LFSD
LFSD 081800Z AUTO 01007KT CAVOK 07/M03 Q1018

Date d'émission: 08/03/2021
Heure d'émission: 18:00 UTC
Vent: 010° pour 7 KT (13 km/h)
Visibilité horizontale: > 10 km
Plafond : Plafond et visibilité OK (CAVOK)
Température: 7 °C
Point de rosée: -3 °C
Humidité: 49%
Pression (QNH): 1018 hPa
TAF de LFSD
LFSD 010600Z 0100/0124 CNL

Conditions prévues :

Heure d'émission : Bulletin éffectué le 01 à 00:00 UTC
Prévision : Valide du 01 a 00:00 UTC au 01 a 23:59 UTC
Nuages : à 0ft (0 m)
WEBCAM POUR GENLIS

Réglementation

Voler en sécurité

CARTES AERONAUTIQUE 1/500.000
CARTES VAC (LFSD)
SUP AIP




Chargement des AIP...
NOTAM (GENLIS + Terrain à proximité / FIR )




Chargement des NOTAMS...
CONTACT PREFECTURE 21
Côte-dOr (21) : pref-drone@cote-dor.gouv.fr


Avertissement : Les données mises à disposition sont indicatives. Oxygène Drone ne pourra être tenu responsable de dégâts causés aux biens et aux personnes.